DAL2531 KLGA-KTPA
Flight info
| Callsign | DAL2531 |
|---|---|
| Flight time | 2h 30m |
| Altitude | 32000 |
| Route | BIGGY Q75 TEUFL BAAMF DADES2 |
| Aircraft | B739/M-SADE2E3GHIJ4RWXZ/LB1 |
Departure
| Time | 2026-05-04 01:01 |
|---|---|
| Airport | LaGuardia Airport (KLGA) |
Arrival
| Time | 2026-05-04 03:31 |
|---|---|
| Airport | Tampa International Airport (KTPA) |
| Time | Latitude | Longitude | Altitude | Speed | Heading |
|---|---|---|---|---|---|
| 2026-05-04 00:27 | 40.77052 | -73.86297 | 20 ft | 0 kts | 312° |
| 2026-05-04 00:28 | 40.77055 | -73.86301 | 20 ft | 0 kts | 312° |
| 2026-05-04 00:53 | 40.77044 | -73.86285 | 19 ft | 4 kts | 312° |
| 2026-05-04 00:53 | 40.77030 | -73.86264 | 20 ft | 4 kts | 336° |
| 2026-05-04 00:53 | 40.77010 | -73.86267 | 19 ft | 4 kts | 40° |
| 2026-05-04 00:53 | 40.77016 | -73.86259 | 20 ft | 2 kts | 42° |
| 2026-05-04 00:54 | 40.77017 | -73.86258 | 20 ft | 0 kts | 42° |
| 2026-05-04 00:56 | 40.77019 | -73.86256 | 21 ft | 1 kts | 42° |
| 2026-05-04 00:56 | 40.77036 | -73.86235 | 20 ft | 6 kts | 42° |
| 2026-05-04 00:57 | 40.77073 | -73.86190 | 19 ft | 8 kts | 43° |
| 2026-05-04 00:57 | 40.77112 | -73.86143 | 18 ft | 7 kts | 43° |
| 2026-05-04 00:57 | 40.77153 | -73.86101 | 17 ft | 8 kts | 28° |
| 2026-05-04 00:57 | 40.77231 | -73.86112 | 10 ft | 11 kts | 2° |
| 2026-05-04 00:58 | 40.77253 | -73.86043 | 11 ft | 10 kts | 117° |
| 2026-05-04 00:58 | 40.77217 | -73.85967 | 11 ft | 10 kts | 122° |
| 2026-05-04 00:58 | 40.77182 | -73.85892 | 12 ft | 9 kts | 121° |
| 2026-05-04 00:58 | 40.77155 | -73.85816 | 12 ft | 9 kts | 90° |
| 2026-05-04 00:59 | 40.77188 | -73.85751 | 13 ft | 7 kts | 44° |
| 2026-05-04 00:59 | 40.77223 | -73.85740 | 15 ft | 4 kts | 318° |
| 2026-05-04 00:59 | 40.77229 | -73.85754 | 15 ft | 0 kts | 299° |
| 2026-05-04 01:00 | 40.77257 | -73.85814 | 15 ft | 29 kts | 302° |
| 2026-05-04 01:01 | 40.77513 | -73.86351 | 13 ft | 107 kts | 302° |
| 2026-05-04 01:01 | 40.78027 | -73.87429 | 48 ft | 164 kts | 302° |
| 2026-05-04 01:01 | 40.78682 | -73.88712 | 732 ft | 169 kts | 309° |
| 2026-05-04 01:01 | 40.79710 | -73.89531 | 1470 ft | 183 kts | 340° |
| 2026-05-04 01:02 | 40.80970 | -73.89948 | 2089 ft | 191 kts | 342° |
| 2026-05-04 01:02 | 40.82314 | -73.90370 | 2459 ft | 208 kts | 342° |
| 2026-05-04 01:02 | 40.83782 | -73.90812 | 2835 ft | 224 kts | 342° |
| 2026-05-04 01:02 | 40.85381 | -73.91291 | 3224 ft | 245 kts | 343° |
| 2026-05-04 01:03 | 40.87059 | -73.91796 | 4030 ft | 246 kts | 343° |
| 2026-05-04 01:03 | 40.88719 | -73.92293 | 4980 ft | 245 kts | 342° |
| 2026-05-04 01:03 | 40.90312 | -73.93040 | 5727 ft | 243 kts | 320° |
| 2026-05-04 01:03 | 40.91289 | -73.94757 | 6458 ft | 240 kts | 287° |
| 2026-05-04 01:04 | 40.91270 | -73.96993 | 7203 ft | 250 kts | 255° |
| 2026-05-04 01:04 | 40.90526 | -73.99070 | 7938 ft | 257 kts | 248° |
| 2026-05-04 01:04 | 40.89676 | -74.01176 | 8644 ft | 262 kts | 248° |
| 2026-05-04 01:04 | 40.88790 | -74.03301 | 9391 ft | 266 kts | 248° |
| 2026-05-04 01:05 | 40.87864 | -74.05440 | 10096 ft | 271 kts | 245° |
| 2026-05-04 01:05 | 40.86843 | -74.07557 | 10712 ft | 277 kts | 244° |
| 2026-05-04 01:05 | 40.85765 | -74.09725 | 11241 ft | 286 kts | 243° |
| 2026-05-04 01:05 | 40.84630 | -74.12009 | 11422 ft | 309 kts | 243° |
| 2026-05-04 01:06 | 40.83412 | -74.14463 | 11600 ft | 329 kts | 243° |
| 2026-05-04 01:06 | 40.82120 | -74.17070 | 11766 ft | 349 kts | 242° |
| 2026-05-04 01:06 | 40.80759 | -74.19815 | 12035 ft | 363 kts | 242° |
| 2026-05-04 01:06 | 40.79361 | -74.22630 | 12542 ft | 370 kts | 242° |
| 2026-05-04 01:07 | 40.77940 | -74.25487 | 13151 ft | 374 kts | 242° |
| 2026-05-04 01:07 | 40.76510 | -74.28364 | 13769 ft | 377 kts | 242° |
| 2026-05-04 01:07 | 40.75078 | -74.31245 | 14333 ft | 380 kts | 242° |
| 2026-05-04 01:07 | 40.73612 | -74.34195 | 15012 ft | 380 kts | 242° |
| 2026-05-04 01:08 | 40.72164 | -74.37111 | 15695 ft | 379 kts | 241° |
| 2026-05-04 01:08 | 40.70739 | -74.39975 | 16361 ft | 378 kts | 241° |
| 2026-05-04 01:08 | 40.69296 | -74.42879 | 16973 ft | 380 kts | 240° |
| 2026-05-04 01:08 | 40.67847 | -74.45793 | 17566 ft | 381 kts | 240° |
| 2026-05-04 01:09 | 40.66392 | -74.48715 | 18168 ft | 383 kts | 240° |
| 2026-05-04 01:09 | 40.64931 | -74.51649 | 18701 ft | 384 kts | 240° |
| 2026-05-04 01:09 | 40.63463 | -74.54593 | 19202 ft | 386 kts | 240° |
| 2026-05-04 01:09 | 40.61983 | -74.57557 | 19682 ft | 388 kts | 240° |
| 2026-05-04 01:10 | 40.60498 | -74.60531 | 20169 ft | 390 kts | 240° |
| 2026-05-04 01:10 | 40.59001 | -74.63524 | 20668 ft | 392 kts | 240° |
| 2026-05-04 01:10 | 40.57497 | -74.66527 | 21145 ft | 394 kts | 240° |
| 2026-05-04 01:10 | 40.55989 | -74.69535 | 21623 ft | 396 kts | 240° |
| 2026-05-04 01:11 | 40.54457 | -74.72589 | 22092 ft | 399 kts | 240° |
| 2026-05-04 01:11 | 40.52927 | -74.75635 | 22552 ft | 400 kts | 240° |
| 2026-05-04 01:11 | 40.51390 | -74.78693 | 23020 ft | 402 kts | 240° |
| 2026-05-04 01:11 | 40.49843 | -74.81767 | 23468 ft | 404 kts | 240° |
| 2026-05-04 01:12 | 40.48287 | -74.84856 | 23839 ft | 407 kts | 240° |
| 2026-05-04 01:12 | 40.46721 | -74.87961 | 24233 ft | 408 kts | 240° |
| 2026-05-04 01:12 | 40.45151 | -74.91072 | 24611 ft | 410 kts | 241° |
| 2026-05-04 01:12 | 40.43569 | -74.94206 | 24988 ft | 411 kts | 241° |
| 2026-05-04 01:13 | 40.41960 | -74.97318 | 25348 ft | 414 kts | 238° |
| 2026-05-04 01:13 | 40.40076 | -75.00229 | 25702 ft | 421 kts | 232° |
| 2026-05-04 01:13 | 40.38062 | -75.03023 | 26069 ft | 422 kts | 232° |
| 2026-05-04 01:13 | 40.36054 | -75.05776 | 26402 ft | 424 kts | 232° |
| 2026-05-04 01:14 | 40.33997 | -75.08604 | 26843 ft | 423 kts | 232° |
| 2026-05-04 01:14 | 40.31975 | -75.11401 | 27254 ft | 422 kts | 233° |
| 2026-05-04 01:14 | 40.29966 | -75.14196 | 27716 ft | 421 kts | 233° |
| 2026-05-04 01:14 | 40.27968 | -75.16982 | 28226 ft | 418 kts | 233° |
| 2026-05-04 01:15 | 40.26012 | -75.19714 | 28756 ft | 415 kts | 233° |
| 2026-05-04 01:15 | 40.24038 | -75.22470 | 29287 ft | 413 kts | 234° |
| 2026-05-04 01:15 | 40.22076 | -75.25209 | 29755 ft | 412 kts | 234° |
| 2026-05-04 01:15 | 40.20120 | -75.27936 | 30184 ft | 411 kts | 234° |
| 2026-05-04 01:16 | 40.18167 | -75.30657 | 30530 ft | 409 kts | 234° |
| 2026-05-04 01:16 | 40.16231 | -75.33348 | 31034 ft | 404 kts | 234° |
| 2026-05-04 01:16 | 40.14314 | -75.36012 | 31466 ft | 401 kts | 234° |
| 2026-05-04 01:16 | 40.12403 | -75.38667 | 31765 ft | 401 kts | 234° |
| 2026-05-04 01:17 | 40.10489 | -75.41324 | 32013 ft | 402 kts | 234° |
| 2026-05-04 01:17 | 40.06634 | -75.46663 | 32013 ft | 404 kts | 233° |
| 2026-05-04 01:18 | 40.02784 | -75.51978 | 32022 ft | 402 kts | 233° |
| 2026-05-04 01:18 | 39.98951 | -75.57263 | 31992 ft | 400 kts | 234° |
| 2026-05-04 01:19 | 39.95142 | -75.62507 | 32018 ft | 397 kts | 234° |
| 2026-05-04 01:19 | 39.91370 | -75.67745 | 32012 ft | 393 kts | 237° |
| 2026-05-04 01:20 | 39.87936 | -75.73245 | 32008 ft | 390 kts | 238° |
| 2026-05-04 01:20 | 39.84528 | -75.78744 | 32011 ft | 390 kts | 238° |
| 2026-05-04 01:21 | 39.81098 | -75.84222 | 32009 ft | 391 kts | 238° |
| 2026-05-04 01:21 | 39.77653 | -75.89715 | 32019 ft | 392 kts | 238° |
| 2026-05-04 01:22 | 39.74191 | -75.95228 | 32009 ft | 394 kts | 237° |
| 2026-05-04 01:22 | 39.70736 | -76.00719 | 32010 ft | 396 kts | 237° |
| 2026-05-04 01:23 | 39.67238 | -76.06268 | 32010 ft | 397 kts | 237° |
| 2026-05-04 01:23 | 39.63733 | -76.11818 | 31980 ft | 398 kts | 237° |
| 2026-05-04 01:24 | 39.60225 | -76.17365 | 31995 ft | 398 kts | 237° |
| 2026-05-04 01:24 | 39.56661 | -76.22859 | 32012 ft | 398 kts | 236° |
| 2026-05-04 01:25 | 39.53072 | -76.28324 | 32013 ft | 398 kts | 236° |
| 2026-05-04 01:25 | 39.49495 | -76.33782 | 32016 ft | 397 kts | 236° |
| 2026-05-04 01:26 | 39.45899 | -76.39206 | 32021 ft | 399 kts | 234° |
| 2026-05-04 01:26 | 39.42030 | -76.44344 | 32012 ft | 398 kts | 232° |
| 2026-05-04 01:27 | 39.38124 | -76.49398 | 32020 ft | 396 kts | 232° |
| 2026-05-04 01:27 | 39.34241 | -76.54441 | 32057 ft | 395 kts | 232° |
| 2026-05-04 01:28 | 39.30377 | -76.59476 | 32039 ft | 394 kts | 232° |
| 2026-05-04 01:28 | 39.26543 | -76.64474 | 32035 ft | 394 kts | 232° |
| 2026-05-04 01:29 | 39.22692 | -76.69484 | 32027 ft | 393 kts | 232° |
| 2026-05-04 01:29 | 39.18844 | -76.74484 | 32033 ft | 392 kts | 232° |
| 2026-05-04 01:30 | 39.15006 | -76.79463 | 32077 ft | 391 kts | 232° |
| 2026-05-04 01:30 | 39.11164 | -76.84437 | 32070 ft | 392 kts | 232° |
| 2026-05-04 01:31 | 39.07319 | -76.89407 | 32052 ft | 392 kts | 232° |
| 2026-05-04 01:31 | 39.03472 | -76.94371 | 32051 ft | 391 kts | 232° |
| 2026-05-04 01:32 | 38.99629 | -76.99324 | 32058 ft | 391 kts | 232° |
| 2026-05-04 01:32 | 38.95806 | -77.04245 | 32056 ft | 391 kts | 232° |
| 2026-05-04 01:33 | 38.91931 | -77.09224 | 32046 ft | 391 kts | 232° |
| 2026-05-04 01:33 | 38.88105 | -77.14132 | 32045 ft | 391 kts | 232° |
| 2026-05-04 01:34 | 38.84253 | -77.19064 | 32034 ft | 390 kts | 232° |
| 2026-05-04 01:34 | 38.80407 | -77.23982 | 32032 ft | 390 kts | 232° |
| 2026-05-04 01:35 | 38.76558 | -77.28895 | 32029 ft | 390 kts | 232° |
| 2026-05-04 01:35 | 38.73361 | -77.32971 | 32033 ft | 390 kts | 232° |
| 2026-05-04 01:36 | 38.69387 | -77.37741 | 32054 ft | 393 kts | 229° |
| 2026-05-04 01:36 | 38.65306 | -77.42398 | 32029 ft | 392 kts | 229° |
| 2026-05-04 01:37 | 38.61241 | -77.47045 | 32047 ft | 391 kts | 229° |
| 2026-05-04 01:37 | 38.57198 | -77.51691 | 32055 ft | 391 kts | 230° |
| 2026-05-04 01:38 | 38.53156 | -77.56343 | 32052 ft | 391 kts | 230° |
| 2026-05-04 01:38 | 38.49116 | -77.60989 | 32051 ft | 391 kts | 229° |
| 2026-05-04 01:39 | 38.45072 | -77.65631 | 32029 ft | 391 kts | 229° |
| 2026-05-04 01:39 | 38.41029 | -77.70265 | 32047 ft | 391 kts | 229° |
| 2026-05-04 01:40 | 38.36987 | -77.74890 | 32048 ft | 391 kts | 229° |
| 2026-05-04 01:40 | 38.32938 | -77.79517 | 32049 ft | 391 kts | 229° |
| 2026-05-04 01:41 | 38.28884 | -77.84141 | 32056 ft | 391 kts | 229° |
| 2026-05-04 01:41 | 38.24822 | -77.88768 | 32015 ft | 391 kts | 229° |
| 2026-05-04 01:42 | 38.20770 | -77.93375 | 32050 ft | 391 kts | 229° |
| 2026-05-04 01:42 | 38.16708 | -77.97987 | 32052 ft | 392 kts | 229° |
| 2026-05-04 01:43 | 38.12641 | -78.02598 | 32048 ft | 392 kts | 229° |
| 2026-05-04 01:43 | 38.08564 | -78.07212 | 32049 ft | 393 kts | 229° |
| 2026-05-04 01:44 | 38.04475 | -78.11833 | 32001 ft | 393 kts | 229° |
| 2026-05-04 01:44 | 38.00339 | -78.16387 | 32034 ft | 396 kts | 225° |
| 2026-05-04 01:45 | 37.95937 | -78.20626 | 32034 ft | 398 kts | 224° |
| 2026-05-04 01:45 | 37.89296 | -78.26894 | 32029 ft | 399 kts | 224° |
| 2026-05-04 01:46 | 37.84852 | -78.31110 | 32028 ft | 399 kts | 224° |
| 2026-05-04 01:46 | 37.80413 | -78.35329 | 32031 ft | 399 kts | 224° |
| 2026-05-04 01:47 | 37.75981 | -78.39538 | 32032 ft | 398 kts | 224° |
| 2026-05-04 01:47 | 37.71555 | -78.43736 | 32037 ft | 398 kts | 224° |
| 2026-05-04 01:48 | 37.67123 | -78.47933 | 32043 ft | 397 kts | 224° |
| 2026-05-04 01:48 | 37.62703 | -78.52113 | 31999 ft | 397 kts | 224° |
| 2026-05-04 01:49 | 37.58315 | -78.56254 | 32037 ft | 396 kts | 224° |
| 2026-05-04 01:49 | 37.53901 | -78.60416 | 32054 ft | 396 kts | 224° |
| 2026-05-04 01:50 | 37.49485 | -78.64574 | 32053 ft | 397 kts | 224° |
| 2026-05-04 01:50 | 37.45060 | -78.68732 | 32061 ft | 397 kts | 224° |
| 2026-05-04 01:51 | 37.40618 | -78.72901 | 32026 ft | 398 kts | 224° |
| 2026-05-04 01:51 | 37.36175 | -78.77063 | 32048 ft | 399 kts | 224° |
| 2026-05-04 01:52 | 37.31721 | -78.81231 | 32060 ft | 400 kts | 224° |
| 2026-05-04 01:52 | 37.27248 | -78.85409 | 32057 ft | 401 kts | 224° |
| 2026-05-04 01:53 | 37.22760 | -78.89594 | 32061 ft | 402 kts | 224° |
| 2026-05-04 01:53 | 37.18260 | -78.93784 | 32018 ft | 403 kts | 224° |
| 2026-05-04 01:54 | 37.13751 | -78.97977 | 32051 ft | 404 kts | 224° |
| 2026-05-04 01:54 | 37.09235 | -79.02171 | 32064 ft | 404 kts | 224° |
| 2026-05-04 01:55 | 37.04707 | -79.06369 | 32050 ft | 405 kts | 223° |
| 2026-05-04 01:55 | 37.00177 | -79.10562 | 32056 ft | 405 kts | 223° |
| 2026-05-04 01:56 | 36.95674 | -79.14723 | 32045 ft | 405 kts | 223° |
| 2026-05-04 01:56 | 36.91133 | -79.18912 | 32051 ft | 406 kts | 223° |
| 2026-05-04 01:57 | 36.86593 | -79.23095 | 32065 ft | 406 kts | 223° |
| 2026-05-04 01:57 | 36.82034 | -79.27289 | 32060 ft | 406 kts | 223° |
| 2026-05-04 01:58 | 36.77479 | -79.31473 | 32066 ft | 407 kts | 223° |
| 2026-05-04 01:58 | 36.72922 | -79.35652 | 32060 ft | 406 kts | 223° |
| 2026-05-04 01:59 | 36.68368 | -79.39822 | 32070 ft | 406 kts | 223° |
| 2026-05-04 01:59 | 36.63810 | -79.43990 | 32057 ft | 407 kts | 223° |
| 2026-05-04 02:00 | 36.59249 | -79.48154 | 32078 ft | 407 kts | 223° |
| 2026-05-04 02:00 | 36.54682 | -79.52318 | 32061 ft | 407 kts | 223° |
| 2026-05-04 02:01 | 36.50103 | -79.56485 | 32051 ft | 408 kts | 223° |
| 2026-05-04 02:01 | 36.45521 | -79.60649 | 32058 ft | 408 kts | 223° |
| 2026-05-04 02:02 | 36.40932 | -79.64814 | 32057 ft | 409 kts | 223° |
| 2026-05-04 02:02 | 36.36337 | -79.68977 | 32082 ft | 409 kts | 223° |
| 2026-05-04 02:03 | 36.31738 | -79.73138 | 32078 ft | 410 kts | 223° |
| 2026-05-04 02:03 | 36.27126 | -79.77304 | 32073 ft | 409 kts | 222° |
| 2026-05-04 02:04 | 36.22554 | -79.81431 | 32076 ft | 410 kts | 222° |
| 2026-05-04 02:04 | 36.17942 | -79.85595 | 32084 ft | 410 kts | 222° |
| 2026-05-04 02:05 | 36.13326 | -79.89755 | 32084 ft | 411 kts | 222° |
| 2026-05-04 02:05 | 36.08699 | -79.93919 | 32081 ft | 411 kts | 222° |
| 2026-05-04 02:06 | 36.03954 | -79.97901 | 32074 ft | 416 kts | 213° |
| 2026-05-04 02:06 | 35.98560 | -80.00681 | 32080 ft | 422 kts | 208° |
| 2026-05-04 02:07 | 35.93090 | -80.03334 | 32080 ft | 422 kts | 208° |
| 2026-05-04 02:07 | 35.87628 | -80.06005 | 32073 ft | 422 kts | 208° |
| 2026-05-04 02:08 | 35.82197 | -80.08676 | 32061 ft | 422 kts | 207° |
| 2026-05-04 02:08 | 35.76751 | -80.11357 | 32081 ft | 422 kts | 207° |
| 2026-05-04 02:09 | 35.71303 | -80.14036 | 32086 ft | 421 kts | 207° |
| 2026-05-04 02:09 | 35.65855 | -80.16710 | 32097 ft | 421 kts | 207° |
| 2026-05-04 02:10 | 35.60402 | -80.19383 | 32113 ft | 422 kts | 207° |
| 2026-05-04 02:10 | 35.54948 | -80.22052 | 32126 ft | 422 kts | 207° |
| 2026-05-04 02:11 | 35.49485 | -80.24722 | 32133 ft | 423 kts | 207° |
| 2026-05-04 02:11 | 35.44015 | -80.27391 | 32138 ft | 423 kts | 207° |
| 2026-05-04 02:12 | 35.38538 | -80.30059 | 32129 ft | 424 kts | 207° |
| 2026-05-04 02:12 | 35.33058 | -80.32725 | 32121 ft | 423 kts | 207° |
| 2026-05-04 02:13 | 35.27576 | -80.35388 | 32115 ft | 424 kts | 207° |
| 2026-05-04 02:13 | 35.22090 | -80.38050 | 32112 ft | 425 kts | 207° |
| 2026-05-04 02:14 | 35.16586 | -80.40715 | 32107 ft | 425 kts | 207° |
| 2026-05-04 02:14 | 35.11082 | -80.43377 | 32082 ft | 426 kts | 207° |
| 2026-05-04 02:15 | 35.05578 | -80.46035 | 32095 ft | 425 kts | 206° |
| 2026-05-04 02:15 | 35.00078 | -80.48687 | 32105 ft | 425 kts | 206° |
| 2026-05-04 02:16 | 34.94611 | -80.51320 | 32107 ft | 425 kts | 206° |
| 2026-05-04 02:16 | 34.89108 | -80.53966 | 32100 ft | 424 kts | 206° |
| 2026-05-04 02:17 | 34.83610 | -80.56606 | 32102 ft | 424 kts | 206° |
| 2026-05-04 02:17 | 34.78114 | -80.59240 | 32102 ft | 424 kts | 206° |
| 2026-05-04 02:18 | 34.72625 | -80.61867 | 32105 ft | 425 kts | 206° |
| 2026-05-04 02:18 | 34.67121 | -80.64511 | 32109 ft | 425 kts | 208° |
| 2026-05-04 02:19 | 34.62165 | -80.68222 | 32090 ft | 415 kts | 225° |
| 2026-05-04 02:19 | 34.57901 | -80.72927 | 32109 ft | 414 kts | 225° |
| 2026-05-04 02:20 | 34.53633 | -80.77622 | 32103 ft | 414 kts | 225° |
| 2026-05-04 02:20 | 34.49376 | -80.82255 | 32106 ft | 413 kts | 225° |
| 2026-05-04 02:21 | 34.45093 | -80.86896 | 32106 ft | 413 kts | 225° |
| 2026-05-04 02:21 | 34.40812 | -80.91526 | 32113 ft | 412 kts | 225° |
| 2026-05-04 02:22 | 34.36535 | -80.96148 | 32109 ft | 413 kts | 225° |
| 2026-05-04 02:22 | 34.32129 | -81.00616 | 32109 ft | 417 kts | 217° |
| 2026-05-04 02:23 | 34.27777 | -81.03313 | 32112 ft | 424 kts | 203° |
| 2026-05-04 02:23 | 34.22168 | -81.05469 | 32121 ft | 426 kts | 202° |
| 2026-05-04 02:24 | 34.16488 | -81.07599 | 32111 ft | 427 kts | 202° |
| 2026-05-04 02:24 | 34.10834 | -81.09744 | 32109 ft | 423 kts | 202° |
| 2026-05-04 02:25 | 34.05284 | -81.11863 | 32106 ft | 416 kts | 202° |
| 2026-05-04 02:25 | 33.99759 | -81.13982 | 32116 ft | 417 kts | 202° |
| 2026-05-04 02:26 | 33.94219 | -81.16103 | 32116 ft | 418 kts | 202° |
| 2026-05-04 02:26 | 33.88673 | -81.18222 | 32101 ft | 418 kts | 203° |
| 2026-05-04 02:27 | 33.83135 | -81.20334 | 32102 ft | 417 kts | 203° |
| 2026-05-04 02:27 | 33.77603 | -81.22441 | 32105 ft | 416 kts | 203° |
| 2026-05-04 02:28 | 33.72086 | -81.24538 | 32103 ft | 415 kts | 202° |
| 2026-05-04 02:28 | 33.66579 | -81.26630 | 32105 ft | 414 kts | 203° |
| 2026-05-04 02:29 | 33.61099 | -81.28708 | 32113 ft | 412 kts | 202° |
| 2026-05-04 02:29 | 33.55622 | -81.30784 | 32106 ft | 412 kts | 202° |
| 2026-05-04 02:30 | 33.50149 | -81.32854 | 32104 ft | 413 kts | 202° |
| 2026-05-04 02:30 | 33.44700 | -81.34913 | 32129 ft | 414 kts | 202° |
| 2026-05-04 02:31 | 33.39203 | -81.36986 | 32133 ft | 415 kts | 202° |
| 2026-05-04 02:31 | 33.33697 | -81.39059 | 32131 ft | 414 kts | 202° |
| 2026-05-04 02:32 | 33.28208 | -81.41125 | 32136 ft | 413 kts | 202° |
| 2026-05-04 02:32 | 33.22800 | -81.43347 | 32134 ft | 410 kts | 205° |
| 2026-05-04 02:33 | 33.17456 | -81.45686 | 32139 ft | 408 kts | 205° |
| 2026-05-04 02:33 | 33.12106 | -81.48000 | 32122 ft | 408 kts | 205° |
| 2026-05-04 02:34 | 33.06780 | -81.50276 | 32125 ft | 407 kts | 205° |
| 2026-05-04 02:34 | 33.01475 | -81.52535 | 32122 ft | 406 kts | 205° |
| 2026-05-04 02:35 | 32.96148 | -81.54800 | 32117 ft | 406 kts | 205° |
| 2026-05-04 02:35 | 32.90824 | -81.57064 | 32127 ft | 406 kts | 205° |
| 2026-05-04 02:36 | 32.85533 | -81.59434 | 32128 ft | 406 kts | 206° |
| 2026-05-04 02:36 | 32.80260 | -81.61848 | 32144 ft | 406 kts | 206° |
| 2026-05-04 02:37 | 32.74983 | -81.64251 | 32153 ft | 406 kts | 206° |
| 2026-05-04 02:37 | 32.69702 | -81.66642 | 32154 ft | 407 kts | 205° |
| 2026-05-04 02:38 | 32.64393 | -81.69039 | 32163 ft | 409 kts | 205° |
| 2026-05-04 02:38 | 32.59060 | -81.71442 | 32123 ft | 410 kts | 205° |
| 2026-05-04 02:39 | 32.53719 | -81.73846 | 32125 ft | 411 kts | 205° |
| 2026-05-04 02:39 | 32.48375 | -81.76248 | 32129 ft | 411 kts | 205° |
| 2026-05-04 02:40 | 32.43033 | -81.78646 | 32127 ft | 410 kts | 205° |
| 2026-05-04 02:40 | 32.37704 | -81.81035 | 32126 ft | 409 kts | 205° |
| 2026-05-04 02:41 | 32.32420 | -81.83400 | 32139 ft | 407 kts | 205° |
| 2026-05-04 02:41 | 32.27128 | -81.85767 | 32145 ft | 406 kts | 205° |
| 2026-05-04 02:42 | 32.21861 | -81.88119 | 32145 ft | 404 kts | 205° |
| 2026-05-04 02:42 | 32.16605 | -81.90464 | 32147 ft | 403 kts | 205° |
| 2026-05-04 02:43 | 32.11316 | -81.92673 | 32147 ft | 403 kts | 203° |
| 2026-05-04 02:43 | 32.05955 | -81.94647 | 32133 ft | 403 kts | 202° |
| 2026-05-04 02:44 | 32.00610 | -81.96614 | 32140 ft | 402 kts | 203° |
| 2026-05-04 02:44 | 31.95268 | -81.98605 | 32139 ft | 402 kts | 203° |
| 2026-05-04 02:45 | 31.89919 | -82.00602 | 32139 ft | 403 kts | 203° |
| 2026-05-04 02:45 | 31.84507 | -82.02415 | 32136 ft | 407 kts | 198° |
| 2026-05-04 02:46 | 31.78957 | -82.03805 | 32129 ft | 408 kts | 198° |
| 2026-05-04 02:46 | 31.73402 | -82.05183 | 32122 ft | 408 kts | 198° |
| 2026-05-04 02:47 | 31.67854 | -82.06571 | 32129 ft | 408 kts | 198° |
| 2026-05-04 02:47 | 31.62311 | -82.07965 | 32164 ft | 408 kts | 198° |
| 2026-05-04 02:48 | 31.56798 | -82.09351 | 32166 ft | 407 kts | 198° |
| 2026-05-04 02:48 | 31.51260 | -82.10742 | 32152 ft | 407 kts | 199° |
| 2026-05-04 02:49 | 31.45731 | -82.12130 | 32153 ft | 406 kts | 199° |
| 2026-05-04 02:49 | 31.40209 | -82.13514 | 32147 ft | 406 kts | 199° |
| 2026-05-04 02:50 | 31.34687 | -82.14896 | 32145 ft | 405 kts | 199° |
| 2026-05-04 02:50 | 31.29173 | -82.16275 | 32152 ft | 405 kts | 199° |
| 2026-05-04 02:51 | 31.23666 | -82.17650 | 32152 ft | 404 kts | 199° |
| 2026-05-04 02:51 | 31.18174 | -82.19020 | 32158 ft | 404 kts | 199° |
| 2026-05-04 02:52 | 31.12677 | -82.20390 | 32173 ft | 404 kts | 199° |
| 2026-05-04 02:52 | 31.07177 | -82.21759 | 32174 ft | 404 kts | 199° |
| 2026-05-04 02:53 | 31.01677 | -82.23125 | 32199 ft | 404 kts | 199° |
| 2026-05-04 02:53 | 30.96170 | -82.24492 | 32197 ft | 404 kts | 199° |
| 2026-05-04 02:54 | 30.90667 | -82.25856 | 32228 ft | 404 kts | 199° |
| 2026-05-04 02:54 | 30.85200 | -82.27210 | 32223 ft | 405 kts | 199° |
| 2026-05-04 02:55 | 30.76922 | -82.29256 | 32235 ft | 405 kts | 199° |
| 2026-05-04 02:56 | 30.71403 | -82.30617 | 32225 ft | 405 kts | 200° |
| 2026-05-04 02:56 | 30.65875 | -82.31939 | 32239 ft | 408 kts | 197° |
| 2026-05-04 02:57 | 30.60202 | -82.32711 | 32253 ft | 412 kts | 193° |
| 2026-05-04 02:57 | 30.54493 | -82.33333 | 32248 ft | 412 kts | 194° |
| 2026-05-04 02:58 | 30.48786 | -82.34004 | 32261 ft | 412 kts | 194° |
| 2026-05-04 02:58 | 30.43085 | -82.34711 | 32261 ft | 412 kts | 194° |
| 2026-05-04 02:59 | 30.37387 | -82.35426 | 32254 ft | 412 kts | 194° |
| 2026-05-04 02:59 | 30.31694 | -82.36138 | 32253 ft | 411 kts | 194° |
| 2026-05-04 03:00 | 30.26000 | -82.36848 | 32226 ft | 411 kts | 194° |
| 2026-05-04 03:00 | 30.20316 | -82.37557 | 32231 ft | 411 kts | 194° |
| 2026-05-04 03:01 | 30.14633 | -82.38008 | 32214 ft | 417 kts | 187° |
| 2026-05-04 03:01 | 30.08802 | -82.37645 | 32218 ft | 420 kts | 185° |
| 2026-05-04 03:02 | 30.02964 | -82.37216 | 32190 ft | 420 kts | 186° |
| 2026-05-04 03:02 | 29.97121 | -82.36851 | 32190 ft | 420 kts | 186° |
| 2026-05-04 03:03 | 29.91280 | -82.36520 | 32174 ft | 421 kts | 186° |
| 2026-05-04 03:03 | 29.85397 | -82.36198 | 31817 ft | 426 kts | 186° |
| 2026-05-04 03:03 | 29.82439 | -82.36034 | 31572 ft | 424 kts | 186° |
| 2026-05-04 03:04 | 29.79494 | -82.35868 | 31327 ft | 423 kts | 186° |
| 2026-05-04 03:04 | 29.76554 | -82.35703 | 31094 ft | 423 kts | 186° |
| 2026-05-04 03:04 | 29.73612 | -82.35540 | 30715 ft | 424 kts | 186° |
| 2026-05-04 03:04 | 29.70649 | -82.35377 | 29853 ft | 426 kts | 186° |
| 2026-05-04 03:05 | 29.67688 | -82.35211 | 29015 ft | 426 kts | 186° |
| 2026-05-04 03:05 | 29.64735 | -82.35045 | 28349 ft | 423 kts | 185° |
| 2026-05-04 03:05 | 29.61811 | -82.34880 | 27734 ft | 418 kts | 185° |
| 2026-05-04 03:05 | 29.58954 | -82.34721 | 27121 ft | 414 kts | 186° |
| 2026-05-04 03:06 | 29.56101 | -82.34562 | 26681 ft | 407 kts | 186° |
| 2026-05-04 03:06 | 29.53279 | -82.34407 | 26231 ft | 406 kts | 186° |
| 2026-05-04 03:06 | 29.50441 | -82.34255 | 25754 ft | 410 kts | 186° |
| 2026-05-04 03:06 | 29.47587 | -82.34101 | 25298 ft | 412 kts | 185° |
| 2026-05-04 03:07 | 29.44725 | -82.33941 | 24837 ft | 409 kts | 185° |
| 2026-05-04 03:07 | 29.41899 | -82.33783 | 24371 ft | 405 kts | 185° |
| 2026-05-04 03:07 | 29.39096 | -82.33598 | 23923 ft | 403 kts | 184° |
| 2026-05-04 03:07 | 29.36302 | -82.33304 | 23417 ft | 402 kts | 182° |
| 2026-05-04 03:08 | 29.33535 | -82.32961 | 22935 ft | 399 kts | 182° |
| 2026-05-04 03:08 | 29.30786 | -82.32607 | 22443 ft | 396 kts | 182° |
| 2026-05-04 03:08 | 29.28065 | -82.32259 | 22034 ft | 391 kts | 182° |
| 2026-05-04 03:08 | 29.25366 | -82.31921 | 21584 ft | 389 kts | 182° |
| 2026-05-04 03:09 | 29.22687 | -82.31594 | 21155 ft | 386 kts | 182° |
| 2026-05-04 03:09 | 29.20023 | -82.31272 | 20734 ft | 384 kts | 182° |
| 2026-05-04 03:09 | 29.18260 | -82.31062 | 20450 ft | 383 kts | 182° |
| 2026-05-04 03:09 | 29.15618 | -82.30747 | 20032 ft | 382 kts | 182° |
| 2026-05-04 03:10 | 29.12975 | -82.30433 | 19600 ft | 381 kts | 182° |
| 2026-05-04 03:10 | 29.10337 | -82.30120 | 19170 ft | 380 kts | 182° |
| 2026-05-04 03:10 | 29.07706 | -82.29808 | 18690 ft | 381 kts | 181° |
| 2026-05-04 03:10 | 29.05069 | -82.29496 | 18156 ft | 380 kts | 181° |
| 2026-05-04 03:11 | 29.02455 | -82.29184 | 17659 ft | 376 kts | 181° |
| 2026-05-04 03:11 | 28.99866 | -82.28874 | 17235 ft | 371 kts | 181° |
| 2026-05-04 03:11 | 28.97316 | -82.28570 | 16804 ft | 367 kts | 181° |
| 2026-05-04 03:11 | 28.94788 | -82.28269 | 16389 ft | 364 kts | 181° |
| 2026-05-04 03:12 | 28.92276 | -82.27972 | 15984 ft | 362 kts | 181° |
| 2026-05-04 03:12 | 28.89759 | -82.27675 | 15583 ft | 364 kts | 180° |
| 2026-05-04 03:12 | 28.87227 | -82.27378 | 15180 ft | 368 kts | 180° |
| 2026-05-04 03:12 | 28.84680 | -82.27076 | 14777 ft | 367 kts | 180° |
| 2026-05-04 03:13 | 28.82144 | -82.26773 | 14361 ft | 364 kts | 180° |
| 2026-05-04 03:13 | 28.79634 | -82.26474 | 13826 ft | 363 kts | 179° |
| 2026-05-04 03:13 | 28.77115 | -82.26177 | 13202 ft | 364 kts | 179° |
| 2026-05-04 03:13 | 28.74603 | -82.25881 | 12627 ft | 363 kts | 179° |
| 2026-05-04 03:14 | 28.72131 | -82.25691 | 12097 ft | 358 kts | 183° |
| 2026-05-04 03:14 | 28.69648 | -82.25677 | 11611 ft | 355 kts | 184° |
| 2026-05-04 03:14 | 28.67182 | -82.25677 | 11186 ft | 355 kts | 184° |
| 2026-05-04 03:14 | 28.64699 | -82.25660 | 11086 ft | 357 kts | 184° |
| 2026-05-04 03:15 | 28.62223 | -82.25625 | 11019 ft | 355 kts | 183° |
| 2026-05-04 03:15 | 28.59752 | -82.25577 | 11004 ft | 355 kts | 183° |
| 2026-05-04 03:15 | 28.57281 | -82.25527 | 10997 ft | 356 kts | 183° |
| 2026-05-04 03:15 | 28.54805 | -82.25479 | 10999 ft | 356 kts | 183° |
| 2026-05-04 03:16 | 28.52332 | -82.25432 | 11000 ft | 356 kts | 183° |
| 2026-05-04 03:16 | 28.49857 | -82.25395 | 10997 ft | 356 kts | 183° |
| 2026-05-04 03:16 | 28.47382 | -82.25364 | 10994 ft | 355 kts | 184° |
| 2026-05-04 03:16 | 28.44910 | -82.25334 | 10988 ft | 355 kts | 183° |
| 2026-05-04 03:17 | 28.42443 | -82.25302 | 10994 ft | 355 kts | 184° |
| 2026-05-04 03:17 | 28.39975 | -82.25271 | 10998 ft | 354 kts | 183° |
| 2026-05-04 03:17 | 28.37523 | -82.25330 | 10992 ft | 350 kts | 193° |
| 2026-05-04 03:17 | 28.35281 | -82.26249 | 11019 ft | 340 kts | 213° |
| 2026-05-04 03:18 | 28.33381 | -82.27826 | 11017 ft | 337 kts | 224° |
| 2026-05-04 03:18 | 28.31606 | -82.29575 | 11019 ft | 339 kts | 224° |
| 2026-05-04 03:18 | 28.29846 | -82.31307 | 10998 ft | 330 kts | 224° |
| 2026-05-04 03:18 | 28.28133 | -82.32970 | 10997 ft | 319 kts | 224° |
| 2026-05-04 03:19 | 28.26455 | -82.34578 | 10988 ft | 315 kts | 223° |
| 2026-05-04 03:19 | 28.24789 | -82.36168 | 10991 ft | 308 kts | 223° |
| 2026-05-04 03:19 | 28.23175 | -82.37703 | 10907 ft | 297 kts | 223° |
| 2026-05-04 03:19 | 28.21623 | -82.39178 | 10834 ft | 285 kts | 224° |
| 2026-05-04 03:20 | 28.20054 | -82.40504 | 10630 ft | 283 kts | 210° |
| 2026-05-04 03:20 | 28.18141 | -82.41116 | 10280 ft | 290 kts | 191° |
| 2026-05-04 03:20 | 28.16111 | -82.41255 | 9903 ft | 294 kts | 186° |
| 2026-05-04 03:20 | 28.14066 | -82.41277 | 9543 ft | 293 kts | 185° |
| 2026-05-04 03:21 | 28.12042 | -82.41285 | 9241 ft | 290 kts | 184° |
| 2026-05-04 03:21 | 28.10028 | -82.41303 | 8905 ft | 289 kts | 184° |
| 2026-05-04 03:21 | 28.08026 | -82.41333 | 8592 ft | 287 kts | 184° |
| 2026-05-04 03:21 | 28.06033 | -82.41371 | 8282 ft | 286 kts | 184° |
| 2026-05-04 03:22 | 28.04049 | -82.41416 | 7964 ft | 285 kts | 184° |
| 2026-05-04 03:22 | 28.02072 | -82.41463 | 7650 ft | 283 kts | 184° |
| 2026-05-04 03:22 | 28.00104 | -82.41511 | 7341 ft | 282 kts | 184° |
| 2026-05-04 03:22 | 27.98150 | -82.41557 | 7036 ft | 281 kts | 184° |
| 2026-05-04 03:23 | 27.96203 | -82.41598 | 6727 ft | 279 kts | 184° |
| 2026-05-04 03:23 | 27.94287 | -82.41638 | 6432 ft | 278 kts | 183° |
| 2026-05-04 03:23 | 27.92362 | -82.41679 | 6122 ft | 276 kts | 182° |
| 2026-05-04 03:23 | 27.90444 | -82.41722 | 5811 ft | 275 kts | 182° |
| 2026-05-04 03:24 | 27.88513 | -82.41771 | 5548 ft | 273 kts | 182° |
| 2026-05-04 03:24 | 27.86639 | -82.41819 | 5282 ft | 272 kts | 182° |
| 2026-05-04 03:24 | 27.84750 | -82.41868 | 4984 ft | 271 kts | 181° |
| 2026-05-04 03:24 | 27.82861 | -82.41916 | 4657 ft | 271 kts | 181° |
| 2026-05-04 03:25 | 27.80978 | -82.41963 | 4379 ft | 270 kts | 181° |
| 2026-05-04 03:25 | 27.79145 | -82.42216 | 4246 ft | 263 kts | 201° |
| 2026-05-04 03:25 | 27.77748 | -82.43445 | 4124 ft | 253 kts | 238° |
| 2026-05-04 03:25 | 27.77204 | -82.45273 | 4023 ft | 242 kts | 263° |
| 2026-05-04 03:26 | 27.77187 | -82.47133 | 3910 ft | 231 kts | 274° |
| 2026-05-04 03:26 | 27.77286 | -82.48905 | 3754 ft | 221 kts | 275° |
| 2026-05-04 03:26 | 27.77396 | -82.50599 | 3552 ft | 212 kts | 279° |
| 2026-05-04 03:26 | 27.77996 | -82.52040 | 3341 ft | 201 kts | 322° |
| 2026-05-04 03:27 | 27.79199 | -82.52688 | 3155 ft | 192 kts | 344° |
| 2026-05-04 03:27 | 27.80473 | -82.53191 | 2977 ft | 195 kts | 344° |
| 2026-05-04 03:27 | 27.81760 | -82.53697 | 2767 ft | 195 kts | 344° |
| 2026-05-04 03:27 | 27.83021 | -82.54190 | 2547 ft | 187 kts | 343° |
| 2026-05-04 03:28 | 27.84208 | -82.54650 | 2318 ft | 173 kts | 349° |
| 2026-05-04 03:28 | 27.85320 | -82.54637 | 2138 ft | 154 kts | 17° |
| 2026-05-04 03:28 | 27.86431 | -82.54538 | 1957 ft | 164 kts | 5° |
| 2026-05-04 03:28 | 27.87575 | -82.54527 | 1752 ft | 162 kts | 7° |
| 2026-05-04 03:29 | 27.88694 | -82.54496 | 1501 ft | 157 kts | 7° |
| 2026-05-04 03:29 | 27.89768 | -82.54460 | 1307 ft | 155 kts | 7° |
| 2026-05-04 03:29 | 27.90816 | -82.54424 | 1098 ft | 148 kts | 7° |
| 2026-05-04 03:29 | 27.91849 | -82.54388 | 938 ft | 148 kts | 7° |
| 2026-05-04 03:30 | 27.92884 | -82.54353 | 740 ft | 150 kts | 6° |
| 2026-05-04 03:30 | 27.93907 | -82.54318 | 552 ft | 149 kts | 7° |
| 2026-05-04 03:30 | 27.94930 | -82.54280 | 363 ft | 147 kts | 6° |
| 2026-05-04 03:30 | 27.95947 | -82.54246 | 152 ft | 144 kts | 6° |
| 2026-05-04 03:31 | 27.96919 | -82.54212 | 50 ft | 127 kts | 2° |
| 2026-05-04 03:31 | 27.97588 | -82.54193 | 46 ft | 66 kts | 2° |
| 2026-05-04 03:31 | 27.97915 | -82.54183 | 47 ft | 40 kts | 1° |
| 2026-05-04 03:31 | 27.98132 | -82.54173 | 47 ft | 22 kts | 7° |
| 2026-05-04 03:32 | 27.98247 | -82.54134 | 49 ft | 14 kts | 32° |
| 2026-05-04 03:32 | 27.98265 | -82.54065 | 47 ft | 10 kts | 134° |
| 2026-05-04 03:32 | 27.98202 | -82.54053 | 47 ft | 9 kts | 177° |
| 2026-05-04 03:32 | 27.98137 | -82.54052 | 46 ft | 9 kts | 180° |
| 2026-05-04 03:33 | 27.98074 | -82.54053 | 46 ft | 9 kts | 179° |
| 2026-05-04 03:33 | 27.98036 | -82.54023 | 44 ft | 7 kts | 109° |
| 2026-05-04 03:33 | 27.98053 | -82.53979 | 45 ft | 6 kts | 34° |
| 2026-05-04 03:33 | 27.98096 | -82.53969 | 46 ft | 6 kts | 3° |
| 2026-05-04 03:34 | 27.98127 | -82.53966 | 46 ft | 4 kts | 14° |
| 2026-05-04 03:34 | 27.98142 | -82.53944 | 45 ft | 5 kts | 81° |
| 2026-05-04 03:34 | 27.98127 | -82.53910 | 41 ft | 3 kts | 129° |
| 2026-05-04 03:34 | 27.98113 | -82.53891 | 43 ft | 1 kts | 128° |
| 2026-05-04 03:35 | 27.98112 | -82.53889 | 43 ft | 0 kts | 128° |